Time;durP1;ratioP1;P1;durP2;ratioP2;P2;SDS_P1;SDS_P2;PMS_P1;PMS_P2;Temp;Humidity;BMP_temperature;BMP_pressure;BME280_temperature;BME280_humidity;BME280_pressure;Samples;Min_cycle;Max_cycle;Signal;HPM_P1;HPM_P2
2023/10/25 00:01:11;;;;;;;3.67;2.70;;;13.50;99.90;;;;;;5059904;28;20202;-55
2023/10/25 00:03:38;;;;;;;8.07;4.47;;;13.40;99.90;;;;;;5061306;28;20209;-59
2023/10/25 00:06:04;;;;;;;5.43;3.53;;;13.50;99.90;;;;;;5063304;28;20225;-55
2023/10/25 00:08:31;;;;;;;4.27;1.80;;;13.40;99.90;;;;;;5062688;28;20212;-56
2023/10/25 00:11:03;;;;;;;5.00;3.23;;;13.30;99.90;;;;;;5059835;28;20637;-57
2023/10/25 00:13:30;;;;;;;9.50;5.13;;;13.30;99.90;;;;;;5059889;28;20206;-56
2023/10/25 00:15:57;;;;;;;2.73;2.53;;;13.20;99.90;;;;;;5067667;28;20225;-57
2023/10/25 00:18:24;;;;;;;2.73;1.83;;;13.20;99.90;;;;;;5059377;28;20222;-59
2023/10/25 00:20:51;;;;;;;5.10;2.20;;;13.20;99.90;;;;;;5062646;28;20250;-56
2023/10/25 00:23:19;;;;;;;2.80;1.90;;;13.10;99.90;;;;;;5062986;28;20208;-57
2023/10/25 00:25:45;;;;;;;3.63;2.03;;;13.00;99.90;;;;;;5059937;28;20308;-56
2023/10/25 00:28:13;;;;;;;5.33;2.03;;;12.90;99.90;;;;;;5059360;28;20663;-56
2023/10/25 00:30:40;;;;;;;3.40;2.27;;;12.80;99.90;;;;;;5061390;28;20224;-56
2023/10/25 00:33:07;;;;;;;2.20;2.00;;;12.70;99.90;;;;;;5062952;28;20201;-56
2023/10/25 00:35:34;;;;;;;3.07;2.13;;;12.70;99.90;;;;;;5062079;28;20212;-56
2023/10/25 00:38:00;;;;;;;2.57;2.00;;;12.70;99.90;;;;;;5059224;28;20205;-56
2023/10/25 00:40:27;;;;;;;4.13;2.80;;;12.70;99.90;;;;;;5059387;28;20591;-56
2023/10/25 00:42:58;;;;;;;5.67;4.23;;;12.60;99.90;;;;;;5051189;28;20202;-56
2023/10/25 00:45:27;;;;;;;3.03;2.30;;;12.50;99.90;;;;;;5059617;28;20247;-55
2023/10/25 00:47:54;;;;;;;3.53;2.27;;;12.50;99.90;;;;;;5059459;28;20213;-58
2023/10/25 00:50:21;;;;;;;3.43;2.43;;;12.30;99.90;;;;;;5059335;28;20201;-59
2023/10/25 00:52:48;;;;;;;3.80;2.40;;;12.20;99.90;;;;;;5061969;28;20209;-60
2023/10/25 00:55:14;;;;;;;3.83;2.30;;;12.20;99.90;;;;;;5062700;28;20208;-59
2023/10/25 00:57:41;;;;;;;2.53;2.23;;;12.30;99.90;;;;;;5061027;28;20205;-60
2023/10/25 01:00:09;;;;;;;3.73;2.40;;;12.30;99.90;;;;;;5058954;28;20308;-61
2023/10/25 01:02:37;;;;;;;2.93;2.63;;;12.30;99.90;;;;;;5059781;28;20209;-61
2023/10/25 01:05:06;;;;;;;3.33;3.00;;;12.20;99.90;;;;;;5062693;28;20270;-60
2023/10/25 01:07:32;;;;;;;3.60;3.17;;;12.20;99.90;;;;;;5062006;28;20749;-59
2023/10/25 01:09:59;;;;;;;4.30;3.20;;;12.10;99.90;;;;;;5058904;28;20247;-61
2023/10/25 01:12:26;;;;;;;3.43;3.13;;;12.00;99.90;;;;;;5059165;28;20198;-59
2023/10/25 01:14:52;;;;;;;3.97;3.57;;;11.80;99.90;;;;;;5062284;28;20208;-60
2023/10/25 01:17:19;;;;;;;5.10;3.57;;;11.80;99.90;;;;;;5062237;28;20365;-61
2023/10/25 01:19:47;;;;;;;4.30;3.90;;;11.80;99.90;;;;;;5059960;28;20225;-60
2023/10/25 01:22:14;;;;;;;4.97;3.50;;;11.80;99.90;;;;;;5058934;28;20202;-60
2023/10/25 01:24:42;;;;;;;5.07;3.93;;;11.70;99.90;;;;;;5060427;28;20699;-60
2023/10/25 01:27:09;;;;;;;4.30;3.60;;;11.80;99.90;;;;;;5062696;28;20228;-60
2023/10/25 01:29:36;;;;;;;4.90;3.77;;;11.80;99.90;;;;;;5061714;28;20201;-61
2023/10/25 01:32:03;;;;;;;10.23;9.17;;;11.90;99.90;;;;;;5059523;28;20300;-60
2023/10/25 01:34:30;;;;;;;6.47;5.77;;;11.90;99.90;;;;;;5058781;28;20604;-60
2023/10/25 01:36:56;;;;;;;6.07;5.03;;;11.80;99.90;;;;;;5050624;28;20218;-60
2023/10/25 01:39:23;;;;;;;4.67;3.80;;;11.80;99.90;;;;;;5062520;28;20596;-59
2023/10/25 01:41:51;;;;;;;4.13;3.80;;;11.80;99.90;;;;;;5065224;28;20213;-61
2023/10/25 01:44:18;;;;;;;4.63;3.70;;;11.80;99.90;;;;;;5065911;28;20279;-58
2023/10/25 01:46:44;;;;;;;3.90;3.60;;;11.80;99.90;;;;;;5063913;28;20236;-60
2023/10/25 01:49:11;;;;;;;4.10;3.40;;;11.70;99.90;;;;;;5062631;28;20193;-59
2023/10/25 01:51:38;;;;;;;3.80;3.50;;;11.70;99.90;;;;;;5063283;28;20213;-60
2023/10/25 01:54:05;;;;;;;4.77;3.23;;;11.70;99.90;;;;;;5066004;28;20240;-60
2023/10/25 01:56:32;;;;;;;3.17;2.97;;;11.70;99.90;;;;;;5065604;28;20216;-60
2023/10/25 01:59:00;;;;;;;3.57;3.23;;;11.70;99.90;;;;;;5062417;28;20221;-60
2023/10/25 02:01:26;;;;;;;4.17;2.97;;;11.60;99.90;;;;;;5062231;28;20201;-60
2023/10/25 02:03:53;;;;;;;5.27;3.20;;;11.60;99.90;;;;;;5065265;28;20213;-60
2023/10/25 02:06:20;;;;;;;3.97;2.43;;;11.60;99.90;;;;;;5065490;28;20227;-60
2023/10/25 02:08:46;;;;;;;3.40;2.73;;;11.60;99.90;;;;;;5063673;28;20204;-60
2023/10/25 02:11:13;;;;;;;6.60;4.10;;;11.60;99.90;;;;;;5062041;28;20198;-59
2023/10/25 02:13:40;;;;;;;11.57;6.13;;;11.50;99.90;;;;;;5063170;28;20564;-60
2023/10/25 02:16:16;;;;;;;9.83;5.33;;;11.50;99.90;;;;;;5065340;28;20225;-60
2023/10/25 02:18:43;;;;;;;5.93;3.20;;;11.40;99.90;;;;;;5063586;28;20259;-60
2023/10/25 02:21:10;;;;;;;3.03;2.60;;;11.30;99.90;;;;;;5061954;28;20205;-60
2023/10/25 02:23:38;;;;;;;2.47;2.20;;;11.30;99.90;;;;;;5062756;28;20210;-60
2023/10/25 02:26:05;;;;;;;6.03;2.43;;;11.30;99.90;;;;;;5065457;28;20248;-59
2023/10/25 02:28:31;;;;;;;3.90;3.30;;;11.30;99.90;;;;;;5065297;28;20200;-59
2023/10/25 02:30:58;;;;;;;3.40;3.10;;;11.30;99.90;;;;;;5053406;28;20251;-59
2023/10/25 02:33:26;;;;;;;6.77;4.10;;;11.30;99.90;;;;;;5061903;28;20328;-60
2023/10/25 02:35:53;;;;;;;4.67;3.90;;;11.30;99.90;;;;;;5064611;28;20613;-60
2023/10/25 02:38:20;;;;;;;6.70;3.30;;;11.20;99.90;;;;;;5065054;28;20209;-59
2023/10/25 02:40:47;;;;;;;3.60;3.30;;;11.10;99.90;;;;;;5062828;28;20228;-59
2023/10/25 02:43:13;;;;;;;4.10;3.70;;;11.10;99.90;;;;;;5061874;28;20206;-60
2023/10/25 02:45:40;;;;;;;4.50;4.10;;;11.20;99.90;;;;;;5062439;28;20222;-60
2023/10/25 02:48:12;;;;;;;4.37;3.83;;;11.20;99.90;;;;;;5064317;28;20258;-60
2023/10/25 02:50:40;;;;;;;5.70;4.23;;;11.20;99.90;;;;;;5063858;28;20197;-60
2023/10/25 02:53:07;;;;;;;4.10;3.70;;;11.10;99.90;;;;;;5061755;28;20209;-59
2023/10/25 02:55:35;;;;;;;3.77;3.47;;;11.10;99.90;;;;;;5061343;28;20206;-59
2023/10/25 02:58:01;;;;;;;4.57;3.47;;;11.00;99.90;;;;;;5064765;28;20201;-59
2023/10/25 03:00:28;;;;;;;4.30;3.37;;;11.10;99.90;;;;;;5064400;28;20217;-59
2023/10/25 03:02:55;;;;;;;5.63;3.57;;;11.10;99.90;;;;;;5061389;28;20675;-58
2023/10/25 03:05:22;;;;;;;4.27;3.80;;;11.10;99.90;;;;;;5061317;28;20202;-60
2023/10/25 03:07:50;;;;;;;7.63;3.77;;;11.10;99.90;;;;;;5063327;28;20209;-59
2023/10/25 03:10:17;;;;;;;5.20;3.43;;;11.00;99.90;;;;;;5064412;28;20228;-59
2023/10/25 03:12:43;;;;;;;5.37;3.40;;;10.90;99.90;;;;;;5062863;28;20213;-59
2023/10/25 03:15:11;;;;;;;3.17;2.87;;;10.80;99.90;;;;;;5060821;28;20259;-58
2023/10/25 03:17:37;;;;;;;5.23;3.40;;;10.90;99.90;;;;;;5061483;28;20244;-57
2023/10/25 03:20:05;;;;;;;3.80;3.40;;;10.90;99.90;;;;;;5064452;28;20213;-59
2023/10/25 03:22:32;;;;;;;3.37;3.00;;;10.90;99.90;;;;;;5064631;28;20288;-59
2023/10/25 03:25:00;;;;;;;5.07;3.63;;;10.90;99.90;;;;;;5064655;28;20204;-59
2023/10/25 03:27:27;;;;;;;3.73;3.00;;;10.80;99.90;;;;;;5064082;28;20221;-59
2023/10/25 03:29:53;;;;;;;3.37;3.00;;;10.70;99.90;;;;;;5061729;28;20212;-59
2023/10/25 03:32:20;;;;;;;3.40;3.10;;;10.70;99.90;;;;;;5061195;28;20599;-59
2023/10/25 03:34:47;;;;;;;3.60;3.30;;;10.70;99.90;;;;;;5063734;28;20213;-59
2023/10/25 03:37:13;;;;;;;3.57;3.27;;;10.70;99.90;;;;;;5064259;28;20318;-58
2023/10/25 03:39:40;;;;;;;3.80;3.47;;;10.70;99.90;;;;;;5062948;28;20277;-58
2023/10/25 03:42:08;;;;;;;4.17;3.77;;;10.80;99.90;;;;;;5060714;28;20201;-59
2023/10/25 03:44:35;;;;;;;3.47;3.17;;;10.60;99.90;;;;;;5061510;28;20210;-60
2023/10/25 03:47:03;;;;;;;4.00;3.60;;;10.60;99.90;;;;;;5065602;28;20706;-59
2023/10/25 03:49:30;;;;;;;4.27;3.73;;;10.60;99.90;;;;;;5064619;28;20318;-59
2023/10/25 03:51:57;;;;;;;4.60;4.13;;;10.60;99.90;;;;;;5061016;28;20206;-59
2023/10/25 03:54:23;;;;;;;4.03;3.63;;;10.50;99.90;;;;;;5060773;28;20201;-60
2023/10/25 03:56:51;;;;;;;4.40;3.93;;;10.50;99.90;;;;;;5062661;28;20228;-59
2023/10/25 03:59:19;;;;;;;5.07;4.07;;;10.50;99.90;;;;;;5063784;28;20265;-60
2023/10/25 04:01:46;;;;;;;5.37;3.80;;;10.40;99.90;;;;;;5061050;28;20211;-57
2023/10/25 04:04:12;;;;;;;5.00;3.53;;;10.40;99.90;;;;;;5060346;28;20205;-58
2023/10/25 04:06:39;;;;;;;4.13;3.73;;;10.30;99.90;;;;;;5083490;22;20241;-60
2023/10/25 04:09:08;;;;;;;5.07;3.60;;;10.20;99.90;;;;;;5043213;28;20209;-61
2023/10/25 04:11:34;;;;;;;3.93;3.63;;;10.00;99.90;;;;;;5043440;28;20209;-61
2023/10/25 04:14:01;;;;;;;5.77;3.90;;;10.00;99.90;;;;;;5040085;28;20210;-61
2023/10/25 04:16:29;;;;;;;5.27;4.77;;;9.90;99.90;;;;;;5047107;28;20221;-61
2023/10/25 04:18:56;;;;;;;4.90;4.40;;;9.80;99.90;;;;;;5051188;28;20264;-62
2023/10/25 04:21:22;;;;;;;5.50;4.43;;;9.80;99.90;;;;;;5051211;28;20213;-62
2023/10/25 04:23:49;;;;;;;5.10;4.60;;;9.70;99.90;;;;;;5051243;28;20208;-61
2023/10/25 04:26:16;;;;;;;5.10;4.60;;;9.60;99.90;;;;;;5051146;28;20600;-61
2023/10/25 04:28:44;;;;;;;5.30;4.80;;;9.50;99.90;;;;;;5051011;28;20598;-61
2023/10/25 04:31:12;;;;;;;5.13;4.60;;;9.40;99.90;;;;;;5050861;28;20659;-63
2023/10/25 04:33:41;;;;;;;5.43;4.93;;;9.40;99.90;;;;;;5051069;28;20241;-62
2023/10/25 04:36:08;;;;;;;5.87;5.37;;;9.50;99.90;;;;;;5050864;28;20218;-62
2023/10/25 04:38:35;;;;;;;8.70;7.23;;;9.50;99.90;;;;;;5051227;28;20213;-62
2023/10/25 04:41:02;;;;;;;6.00;5.37;;;9.50;99.90;;;;;;5051219;28;20222;-62
2023/10/25 04:43:29;;;;;;;5.70;5.20;;;9.60;99.90;;;;;;5051031;28;20205;-61
2023/10/25 04:45:55;;;;;;;5.73;5.13;;;9.70;99.90;;;;;;5050638;28;20240;-62
2023/10/25 04:48:22;;;;;;;5.70;5.17;;;9.60;99.90;;;;;;5050944;28;20229;-63
2023/10/25 04:50:50;;;;;;;6.17;5.57;;;9.50;99.90;;;;;;5050601;28;20206;-61
2023/10/25 04:53:17;;;;;;;5.63;5.13;;;9.40;99.90;;;;;;5050985;28;20213;-63
2023/10/25 04:55:45;;;;;;;5.67;5.17;;;9.30;99.90;;;;;;5050639;28;20220;-61
2023/10/25 04:58:12;;;;;;;5.37;4.87;;;9.40;99.90;;;;;;5050431;28;20210;-61
2023/10/25 05:00:39;;;;;;;5.10;4.60;;;9.40;99.90;;;;;;5050384;28;20683;-60
2023/10/25 05:03:10;;;;;;;6.07;5.47;;;9.40;99.90;;;;;;5050440;28;20202;-61
2023/10/25 05:05:37;;;;;;;5.87;5.27;;;9.40;99.90;;;;;;5050592;28;20228;-63
2023/10/25 05:08:06;;;;;;;6.83;5.80;;;9.50;99.90;;;;;;5050703;28;20229;-62
2023/10/25 05:10:33;;;;;;;6.00;5.40;;;9.90;99.90;;;;;;5050405;28;20202;-61
2023/10/25 05:13:01;;;;;;;6.33;5.63;;;9.60;99.90;;;;;;5053337;28;20244;-62
2023/10/25 05:15:28;;;;;;;5.10;4.60;;;9.60;99.90;;;;;;5054686;28;20205;-61
2023/10/25 05:17:55;;;;;;;4.70;4.20;;;9.60;99.90;;;;;;5054250;28;20665;-61
2023/10/25 05:20:23;;;;;;;5.97;5.10;;;9.50;99.90;;;;;;5054665;28;20243;-61
2023/10/25 05:22:50;;;;;;;7.47;5.60;;;9.50;99.90;;;;;;5054560;28;20221;-62
2023/10/25 05:25:20;;;;;;;5.07;4.57;;;9.40;99.90;;;;;;5054577;28;20221;-62
2023/10/25 05:27:47;;;;;;;6.23;4.27;;;9.40;99.90;;;;;;5054628;28;20225;-62
2023/10/25 05:30:15;;;;;;;4.40;4.00;;;9.40;99.90;;;;;;5054133;28;20224;-61
2023/10/25 05:32:46;;;;;;;5.50;4.87;;;9.40;99.90;;;;;;5054424;28;20205;-61
2023/10/25 05:35:14;;;;;;;4.67;4.23;;;9.50;99.90;;;;;;5054756;28;20656;-61
2023/10/25 05:37:41;;;;;;;5.03;4.47;;;9.50;99.90;;;;;;5054163;28;20232;-61
2023/10/25 05:40:09;;;;;;;4.53;4.13;;;9.50;99.90;;;;;;5054077;28;20226;-61
2023/10/25 05:42:41;;;;;;;4.77;4.27;;;9.60;99.90;;;;;;5054109;28;20206;-60
2023/10/25 05:45:10;;;;;;;4.83;3.87;;;9.50;99.90;;;;;;5046875;28;20214;-62
2023/10/25 05:47:37;;;;;;;4.80;4.30;;;9.40;99.90;;;;;;5053831;28;20786;-62
2023/10/25 05:50:04;;;;;;;4.77;4.10;;;9.40;99.90;;;;;;5046221;28;20221;-61
2023/10/25 05:52:32;;;;;;;4.17;3.77;;;9.40;99.90;;;;;;5054103;28;20281;-62
2023/10/25 05:54:59;;;;;;;4.27;3.87;;;9.40;99.90;;;;;;5054105;28;20224;-63
2023/10/25 05:57:27;;;;;;;3.97;3.63;;;9.30;99.90;;;;;;5053629;28;20225;-62
2023/10/25 05:59:55;;;;;;;3.70;3.23;;;9.20;99.90;;;;;;5053481;28;20602;-62
2023/10/25 06:02:27;;;;;;;4.63;2.90;;;9.20;99.90;;;;;;5053872;28;20705;-62
2023/10/25 06:04:56;;;;;;;5.93;3.40;;;9.10;99.90;;;;;;5053502;28;20593;-62
2023/10/25 06:07:24;;;;;;;4.17;3.40;;;9.10;99.90;;;;;;5053750;28;20222;-61
2023/10/25 06:09:51;;;;;;;3.10;2.83;;;9.10;99.90;;;;;;5053442;28;20202;-63
2023/10/25 06:12:20;;;;;;;3.73;3.07;;;9.20;99.90;;;;;;5053880;28;20212;-62
2023/10/25 06:14:47;;;;;;;3.47;3.17;;;9.30;99.90;;;;;;5053583;28;20205;-62
2023/10/25 06:17:15;;;;;;;3.27;2.97;;;9.50;99.90;;;;;;5053541;28;20313;-62
2023/10/25 06:19:42;;;;;;;3.00;2.73;;;9.50;99.90;;;;;;5053701;28;20205;-61
2023/10/25 06:22:08;;;;;;;6.03;3.60;;;9.60;99.90;;;;;;5053158;28;20212;-62
2023/10/25 06:24:35;;;;;;;5.30;2.97;;;9.70;99.90;;;;;;5052688;28;20206;-61
2023/10/25 06:27:02;;;;;;;4.90;3.20;;;9.70;99.90;;;;;;5053449;28;20292;-61
2023/10/25 06:29:28;;;;;;;3.57;3.00;;;9.70;99.90;;;;;;5053710;28;20296;-61
2023/10/25 06:31:55;;;;;;;3.80;3.13;;;9.70;99.90;;;;;;5053045;28;20263;-62
2023/10/25 06:34:23;;;;;;;3.43;3.13;;;9.70;99.90;;;;;;5053403;28;20233;-60
2023/10/25 06:36:50;;;;;;;4.43;3.60;;;9.70;99.90;;;;;;5053723;28;20679;-61
2023/10/25 06:39:17;;;;;;;4.03;3.63;;;9.70;99.90;;;;;;5053886;28;20209;-60
2023/10/25 06:41:45;;;;;;;4.60;3.93;;;9.70;99.90;;;;;;5053789;28;20229;-61
2023/10/25 06:44:12;;;;;;;3.40;3.10;;;9.80;99.90;;;;;;5053823;28;20201;-61
2023/10/25 06:46:39;;;;;;;3.47;3.17;;;9.90;99.90;;;;;;5053664;28;20229;-60
2023/10/25 06:49:06;;;;;;;5.03;3.67;;;10.20;99.90;;;;;;5045042;28;20217;-63
2023/10/25 06:51:35;;;;;;;5.83;3.37;;;10.30;99.90;;;;;;5052780;28;20205;-61
2023/10/25 06:54:03;;;;;;;4.37;2.90;;;10.40;99.90;;;;;;5052690;28;20615;-62
2023/10/25 06:56:30;;;;;;;3.17;2.80;;;10.40;99.90;;;;;;5052767;28;20711;-63
2023/10/25 06:58:57;;;;;;;6.23;2.93;;;10.30;99.90;;;;;;5052794;28;20217;-61
2023/10/25 07:01:26;;;;;;;3.43;2.80;;;10.30;99.90;;;;;;5052397;28;20217;-61
2023/10/25 07:03:56;;;;;;;3.43;2.73;;;10.20;99.90;;;;;;5052467;28;20205;-61
2023/10/25 07:06:24;;;;;;;3.17;2.87;;;10.20;99.90;;;;;;5052383;28;20240;-61
2023/10/25 07:08:53;;;;;;;4.33;2.60;;;10.30;99.90;;;;;;5052629;28;20281;-61
2023/10/25 07:11:19;;;;;;;3.87;2.80;;;10.40;99.90;;;;;;5052639;28;20212;-61
2023/10/25 07:13:46;;;;;;;3.47;3.00;;;10.50;99.90;;;;;;5052924;28;20225;-61
2023/10/25 07:16:13;;;;;;;4.03;3.30;;;10.50;99.90;;;;;;5052613;28;20221;-62
2023/10/25 07:18:40;;;;;;;4.87;3.10;;;10.60;99.90;;;;;;5052515;28;20205;-61
2023/10/25 07:21:08;;;;;;;3.37;3.03;;;10.80;99.90;;;;;;5044338;28;20249;-62
2023/10/25 07:23:35;;;;;;;3.20;2.90;;;10.90;99.90;;;;;;5052639;28;20229;-62
2023/10/25 07:26:03;;;;;;;3.30;2.90;;;11.20;99.90;;;;;;5052051;28;20217;-61
2023/10/25 07:28:29;;;;;;;2.80;2.47;;;11.30;99.90;;;;;;5052208;28;20206;-60
2023/10/25 07:30:56;;;;;;;2.93;2.63;;;11.50;99.90;;;;;;5052080;28;20217;-61
2023/10/25 07:33:24;;;;;;;3.87;3.47;;;11.70;99.90;;;;;;5052441;28;20209;-61
2023/10/25 07:35:50;;;;;;;4.03;2.80;;;11.70;99.90;;;;;;5051870;28;20250;-59
2023/10/25 07:38:17;;;;;;;3.10;2.50;;;11.80;99.90;;;;;;5052055;28;20209;-59
2023/10/25 07:40:44;;;;;;;2.70;2.50;;;11.90;99.90;;;;;;5051663;28;20505;-60
2023/10/25 07:43:12;;;;;;;3.80;2.53;;;11.90;99.90;;;;;;5051674;28;20206;-60
2023/10/25 07:45:39;;;;;;;2.80;2.60;;;11.90;99.90;;;;;;5051509;28;20257;-58
2023/10/25 07:48:06;;;;;;;3.00;2.30;;;11.90;99.90;;;;;;5051799;28;20635;-59
2023/10/25 07:50:34;;;;;;;4.57;3.10;;;12.10;99.90;;;;;;5051813;28;20202;-58
2023/10/25 07:53:01;;;;;;;2.63;2.43;;;12.20;99.90;;;;;;5051819;28;20206;-60
2023/10/25 07:55:27;;;;;;;2.50;2.30;;;12.40;99.90;;;;;;5051782;28;20202;-61
2023/10/25 07:57:54;;;;;;;3.47;2.13;;;12.60;99.90;;;;;;5051350;28;20248;-59
2023/10/25 08:00:23;;;;;;;5.43;4.23;;;12.80;99.90;;;;;;5051288;28;20205;-59
2023/10/25 08:02:49;;;;;;;3.60;2.17;;;12.90;99.90;;;;;;5051465;28;20209;-59
2023/10/25 08:05:16;;;;;;;2.57;2.37;;;13.20;99.90;;;;;;5051790;28;20205;-59
2023/10/25 08:07:44;;;;;;;6.23;3.80;;;13.40;99.90;;;;;;5051116;28;20233;-58
2023/10/25 08:10:11;;;;;;;3.40;1.70;;;13.50;99.90;;;;;;5051300;28;20674;-59
2023/10/25 08:12:38;;;;;;;2.47;2.00;;;13.50;99.90;;;;;;5051496;28;20628;-59
2023/10/25 08:15:06;;;;;;;1.97;1.87;;;13.50;99.90;;;;;;5051268;28;20213;-59
2023/10/25 08:17:34;;;;;;;1.90;1.67;;;13.40;99.90;;;;;;5051455;28;20287;-60
2023/10/25 08:20:01;;;;;;;2.07;1.87;;;13.40;99.90;;;;;;5051072;28;20201;-58
2023/10/25 08:22:28;;;;;;;2.57;2.13;;;13.30;99.90;;;;;;5051045;28;20225;-58
2023/10/25 08:24:55;;;;;;;1.60;1.40;;;13.30;99.90;;;;;;5051119;28;20589;-60
2023/10/25 08:27:21;;;;;;;1.77;1.40;;;13.30;99.90;;;;;;5050903;28;20262;-59
2023/10/25 08:29:48;;;;;;;1.60;1.50;;;13.40;99.90;;;;;;5050788;28;20284;-58
2023/10/25 08:32:15;;;;;;;1.60;1.50;;;13.40;99.90;;;;;;5051021;28;20206;-58
2023/10/25 08:34:47;;;;;;;3.63;1.87;;;13.60;99.90;;;;;;5051043;28;20209;-58
2023/10/25 08:37:14;;;;;;;1.50;1.40;;;13.80;99.90;;;;;;5043279;28;20723;-59
2023/10/25 08:39:41;;;;;;;3.30;1.70;;;13.90;99.90;;;;;;5050981;28;20201;-58
2023/10/25 08:42:11;;;;;;;1.83;1.33;;;14.30;99.90;;;;;;5042034;28;20699;-59
2023/10/25 08:44:40;;;;;;;1.50;1.40;;;14.60;99.90;;;;;;5050898;28;20699;-58
2023/10/25 08:47:09;;;;;;;1.50;1.40;;;14.80;99.90;;;;;;5050082;28;20311;-58
2023/10/25 08:49:37;;;;;;;4.90;2.50;;;15.10;99.90;;;;;;5050995;28;20259;-59
2023/10/25 08:52:06;;;;;;;2.03;1.70;;;15.40;99.90;;;;;;5050291;28;20240;-59
2023/10/25 08:54:35;;;;;;;2.30;1.50;;;15.60;99.90;;;;;;5050658;28;20202;-59
2023/10/25 08:57:03;;;;;;;1.50;1.40;;;15.70;99.90;;;;;;5050222;28;20225;-59
2023/10/25 08:59:30;;;;;;;3.63;1.80;;;15.90;99.90;;;;;;5050887;28;20212;-59
2023/10/25 09:01:57;;;;;;;1.33;1.23;;;15.90;99.90;;;;;;5050261;28;20225;-59
2023/10/25 09:04:24;;;;;;;1.60;1.38;;;15.90;99.90;;;;;;5050671;28;20230;-58
2023/10/25 09:06:50;;;;;;;1.88;1.70;;;16.00;99.90;;;;;;5049998;28;20232;-58
2023/10/25 09:09:18;;;;;;;2.92;1.40;;;16.00;99.90;;;;;;5050706;28;20217;-59
2023/10/25 09:11:47;;;;;;;1.77;1.60;;;15.90;99.90;;;;;;5050314;28;20201;-59
2023/10/25 09:14:14;;;;;;;1.90;1.48;;;15.80;99.90;;;;;;5050353;28;20201;-59
2023/10/25 09:16:41;;;;;;;1.90;1.65;;;15.50;99.90;;;;;;5050396;28;20225;-58
2023/10/25 09:19:08;;;;;;;2.20;1.60;;;15.50;99.90;;;;;;5050456;28;20656;-58
2023/10/25 09:21:35;;;;;;;3.55;1.70;;;15.30;99.90;;;;;;5049982;28;20228;-59
2023/10/25 09:24:07;;;;;;;2.17;1.80;;;15.40;99.90;;;;;;5050191;28;20574;-58
2023/10/25 09:26:36;;;;;;;3.07;2.00;;;15.20;99.90;;;;;;5050601;28;20291;-59
2023/10/25 09:29:03;;;;;;;2.10;1.90;;;15.10;99.90;;;;;;5050351;28;20211;-58
2023/10/25 09:31:31;;;;;;;2.10;1.70;;;15.00;99.90;;;;;;5050189;28;20201;-59
2023/10/25 09:34:00;;;;;;;2.10;1.87;;;15.00;99.90;;;;;;5050125;28;20233;-60
2023/10/25 09:36:28;;;;;;;3.70;1.73;;;15.10;99.90;;;;;;5050148;28;20221;-58
2023/10/25 09:38:56;;;;;;;1.87;1.50;;;15.20;99.90;;;;;;5050136;28;20569;-58
2023/10/25 09:41:26;;;;;;;3.13;2.00;;;15.30;99.90;;;;;;5050287;28;20633;-60
2023/10/25 09:43:58;;;;;;;2.17;1.70;;;15.50;99.90;;;;;;5050154;28;20568;-59
2023/10/25 09:46:29;;;;;;;1.40;1.10;;;15.50;99.90;;;;;;5049885;28;20267;-59
2023/10/25 09:49:03;;;;;;;2.55;1.40;;;15.70;99.90;;;;;;5050624;28;20578;-59
2023/10/25 09:51:38;;;;;;;2.00;1.40;;;15.80;99.90;;;;;;5050341;28;20198;-58
2023/10/25 09:54:10;;;;;;;2.38;1.20;;;15.80;99.90;;;;;;5049946;28;20201;-60
2023/10/25 09:56:37;;;;;;;2.17;1.25;;;15.90;99.90;;;;;;5050238;28;20262;-59
2023/10/25 09:59:10;;;;;;;2.67;1.20;;;15.90;99.90;;;;;;5051118;28;20212;-58
2023/10/25 10:01:38;;;;;;;2.45;1.20;;;16.00;99.90;;;;;;5053765;28;20226;-60
2023/10/25 10:04:14;;;;;;;1.17;1.07;;;16.00;99.90;;;;;;5053929;28;20233;-59
2023/10/25 10:06:50;;;;;;;1.67;1.10;;;16.10;99.90;;;;;;5086411;22;20232;-57
2023/10/25 10:09:30;;;;;;;3.70;1.60;;;16.00;99.90;;;;;;5086348;28;20245;-56
2023/10/25 10:12:01;;;;;;;1.75;1.30;;;16.00;99.90;;;;;;5093610;28;20284;-56
2023/10/25 10:14:31;;;;;;;1.77;1.42;;;16.00;99.90;;;;;;5093877;28;20200;-58
2023/10/25 10:16:58;;;;;;;1.92;1.45;;;15.90;99.90;;;;;;5093852;28;20235;-58
2023/10/25 10:19:25;;;;;;;3.53;1.40;;;15.90;99.90;;;;;;5093989;28;20192;-57
2023/10/25 10:22:08;;;;;;;25.45;21.63;;;15.90;99.90;;;;;;5093473;28;20224;-57
2023/10/25 10:24:44;;;;;;;4.95;1.85;;;15.90;99.90;;;;;;5093968;28;20214;-57
2023/10/25 10:27:11;;;;;;;2.08;1.30;;;15.90;99.90;;;;;;5093410;28;20303;-57
2023/10/25 10:29:41;;;;;;;2.33;1.70;;;16.00;99.90;;;;;;5093745;28;20211;-57
2023/10/25 10:32:09;;;;;;;2.10;1.70;;;15.90;99.90;;;;;;5093024;28;20552;-56
2023/10/25 10:34:42;;;;;;;2.75;2.00;;;15.80;99.90;;;;;;5093417;28;20212;-57
2023/10/25 10:37:10;;;;;;;2.17;1.50;;;15.80;99.90;;;;;;5093134;28;20685;-57
2023/10/25 10:39:37;;;;;;;2.67;1.67;;;15.80;99.90;;;;;;5093391;28;20200;-58
2023/10/25 10:42:04;;;;;;;3.88;1.80;;;15.80;99.90;;;;;;5090487;28;20341;-60
2023/10/25 10:44:35;;;;;;;1.90;1.70;;;15.90;99.90;;;;;;5093059;28;20211;-61
2023/10/25 10:47:07;;;;;;;2.42;1.80;;;15.90;99.90;;;;;;5092642;28;20252;-58
2023/10/25 10:49:36;;;;;;;2.47;1.55;;;16.00;99.90;;;;;;5093310;28;20215;-59
2023/10/25 10:52:03;;;;;;;2.45;1.40;;;16.00;99.90;;;;;;5082846;28;20250;-59
2023/10/25 10:54:30;;;;;;;1.48;1.10;;;16.30;99.90;;;;;;5077890;28;20217;-59
2023/10/25 10:56:57;;;;;;;2.28;1.20;;;16.30;99.90;;;;;;5072103;28;20233;-59
2023/10/25 10:59:28;;;;;;;3.25;1.30;;;16.30;99.90;;;;;;5072674;28;20204;-60
2023/10/25 11:01:55;;;;;;;0.85;0.77;;;16.50;99.90;;;;;;5072369;28;20220;-59
2023/10/25 11:04:23;;;;;;;0.75;0.73;;;16.70;99.90;;;;;;5072612;28;20521;-60
2023/10/25 11:06:50;;;;;;;1.40;1.20;;;16.80;99.90;;;;;;5089171;28;20232;-58
2023/10/25 11:09:16;;;;;;;0.80;0.80;;;17.00;99.90;;;;;;5078627;28;20208;-56
2023/10/25 11:11:43;;;;;;;1.10;0.80;;;17.20;99.90;;;;;;5072217;28;20209;-62
2023/10/25 11:14:10;;;;;;;0.73;0.73;;;17.20;99.90;;;;;;5080405;28;20494;-59
2023/10/25 11:16:37;;;;;;;2.35;1.20;;;17.20;99.90;;;;;;5072144;28;20714;-59
2023/10/25 11:19:07;;;;;;;1.33;0.90;;;17.20;99.90;;;;;;5072566;28;20215;-58
2023/10/25 11:21:36;;;;;;;1.33;0.88;;;17.00;99.90;;;;;;5071758;28;20239;-59
2023/10/25 11:24:06;;;;;;;1.63;0.73;;;16.90;99.90;;;;;;5091087;28;20232;-59
2023/10/25 11:26:40;;;;;;;0.85;0.77;;;16.90;99.90;;;;;;5077668;28;20239;-59
2023/10/25 11:29:07;;;;;;;2.83;0.80;;;17.00;99.90;;;;;;5080280;28;20595;-58
2023/10/25 11:31:34;;;;;;;1.38;0.75;;;17.00;99.90;;;;;;5071923;28;20215;-59
2023/10/25 11:34:01;;;;;;;1.42;0.85;;;17.10;99.90;;;;;;5071419;28;20228;-59
2023/10/25 11:36:30;;;;;;;2.67;0.95;;;17.10;99.90;;;;;;5081396;28;20318;-58
2023/10/25 11:39:06;;;;;;;1.25;0.77;;;17.10;99.90;;;;;;5073321;28;20575;-57
2023/10/25 11:41:33;;;;;;;1.40;0.82;;;17.20;99.90;;;;;;5071696;28;20262;-62
2023/10/25 11:44:00;;;;;;;1.10;0.98;;;17.10;99.90;;;;;;5078500;28;20208;-60
2023/10/25 11:46:34;;;;;;;1.27;1.00;;;17.10;99.90;;;;;;5088526;28;20228;-56
2023/10/25 11:49:01;;;;;;;2.58;1.20;;;17.20;99.90;;;;;;5092059;28;20629;-55
2023/10/25 11:51:28;;;;;;;1.05;0.88;;;17.40;99.90;;;;;;5092285;28;20232;-56
2023/10/25 11:53:55;;;;;;;1.60;1.00;;;17.50;99.90;;;;;;5092497;28;20265;-55
2023/10/25 11:56:24;;;;;;;1.10;1.00;;;17.60;99.90;;;;;;5092346;28;20224;-57
2023/10/25 11:58:50;;;;;;;1.33;1.10;;;17.70;99.90;;;;;;5092297;28;20243;-56
2023/10/25 12:01:17;;;;;;;1.67;1.13;;;17.70;99.90;;;;;;5091836;28;20322;-56
2023/10/25 12:03:44;;;;;;;1.20;1.10;;;17.70;99.90;;;;;;5092170;28;20224;-56
2023/10/25 12:06:11;;;;;;;3.08;0.93;;;17.80;99.90;;;;;;5092020;28;20211;-55
2023/10/25 12:08:39;;;;;;;2.60;1.30;;;17.90;99.90;;;;;;5091939;28;20208;-56
2023/10/25 12:11:05;;;;;;;1.45;0.80;;;18.00;99.90;;;;;;5092281;28;20211;-56
2023/10/25 12:13:34;;;;;;;0.93;0.85;;;18.10;99.90;;;;;;5092605;28;20196;-55
2023/10/25 12:16:01;;;;;;;1.35;1.00;;;18.30;99.90;;;;;;5091623;28;20247;-56
2023/10/25 12:18:28;;;;;;;1.85;1.27;;;18.50;99.90;;;;;;5091842;28;20223;-56
2023/10/25 12:20:55;;;;;;;1.75;1.05;;;18.60;99.90;;;;;;5091530;28;20628;-56
2023/10/25 12:23:21;;;;;;;1.05;0.95;;;18.60;99.90;;;;;;5091997;28;20220;-58
2023/10/25 12:25:48;;;;;;;1.55;0.88;;;18.40;99.90;;;;;;5092207;28;20212;-59
2023/10/25 12:28:15;;;;;;;2.47;1.10;;;18.20;99.90;;;;;;5084197;28;20235;-57
2023/10/25 12:30:43;;;;;;;1.02;0.93;;;18.10;99.90;;;;;;5092081;28;20313;-55
2023/10/25 12:33:09;;;;;;;2.20;1.25;;;17.90;99.90;;;;;;5091771;28;20305;-56
2023/10/25 12:35:36;;;;;;;2.45;0.90;;;17.80;99.90;;;;;;5091813;28;20200;-55
2023/10/25 12:38:03;;;;;;;2.00;1.30;;;17.70;99.90;;;;;;5091978;28;20226;-56
2023/10/25 12:40:30;;;;;;;1.20;0.85;;;17.70;99.90;;;;;;5091846;28;20204;-56
2023/10/25 12:42:58;;;;;;;0.75;0.50;;;17.80;99.90;;;;;;5091288;28;20713;-56
2023/10/25 12:45:24;;;;;;;1.40;0.70;;;17.80;99.90;;;;;;5092027;28;20201;-56
2023/10/25 12:47:53;;;;;;;1.35;0.70;;;17.60;99.90;;;;;;5091604;28;20231;-63
2023/10/25 12:50:19;;;;;;;0.73;0.57;;;17.50;99.90;;;;;;5091699;28;20586;-57